sensor_id;sensor_type;location;lat;lon;timestamp;P1;durP1;ratioP1;P2;durP2;ratioP2
40433;SDS011;26146;51.114;5.654;2022-11-20T00:02:51;19.03;;;8.80;;
40433;SDS011;26146;51.114;5.654;2022-11-20T00:06:51;18.27;;;8.30;;
40433;SDS011;26146;51.114;5.654;2022-11-20T00:10:52;19.47;;;8.80;;
40433;SDS011;26146;51.114;5.654;2022-11-20T00:14:53;19.77;;;9.27;;
40433;SDS011;26146;51.114;5.654;2022-11-20T00:18:54;18.57;;;8.87;;
40433;SDS011;26146;51.114;5.654;2022-11-20T00:22:55;19.00;;;8.43;;
40433;SDS011;26146;51.114;5.654;2022-11-20T00:26:56;18.40;;;8.80;;
40433;SDS011;26146;51.114;5.654;2022-11-20T00:31:07;18.33;;;8.60;;
40433;SDS011;26146;51.114;5.654;2022-11-20T00:35:08;18.63;;;8.63;;
40433;SDS011;26146;51.114;5.654;2022-11-20T00:39:09;18.20;;;8.70;;
40433;SDS011;26146;51.114;5.654;2022-11-20T00:43:10;18.80;;;8.73;;
40433;SDS011;26146;51.114;5.654;2022-11-20T00:47:11;17.67;;;8.53;;
40433;SDS011;26146;51.114;5.654;2022-11-20T00:51:13;17.13;;;8.70;;
40433;SDS011;26146;51.114;5.654;2022-11-20T00:55:18;18.73;;;8.53;;
40433;SDS011;26146;51.114;5.654;2022-11-20T00:59:19;19.50;;;8.87;;
40433;SDS011;26146;51.114;5.654;2022-11-20T01:03:20;20.87;;;9.10;;
40433;SDS011;26146;51.114;5.654;2022-11-20T01:07:21;20.73;;;9.27;;
40433;SDS011;26146;51.114;5.654;2022-11-20T01:11:23;19.27;;;9.10;;
40433;SDS011;26146;51.114;5.654;2022-11-20T01:15:28;19.27;;;9.00;;
40433;SDS011;26146;51.114;5.654;2022-11-20T01:19:29;18.07;;;8.70;;
40433;SDS011;26146;51.114;5.654;2022-11-20T01:23:31;18.50;;;9.17;;
40433;SDS011;26146;51.114;5.654;2022-11-20T01:27:33;19.87;;;9.60;;
40433;SDS011;26146;51.114;5.654;2022-11-20T01:31:35;23.53;;;10.70;;
40433;SDS011;26146;51.114;5.654;2022-11-20T01:35:37;21.37;;;9.87;;
40433;SDS011;26146;51.114;5.654;2022-11-20T01:39:37;21.80;;;9.93;;
40433;SDS011;26146;51.114;5.654;2022-11-20T01:43:38;18.93;;;9.10;;
40433;SDS011;26146;51.114;5.654;2022-11-20T01:47:40;20.10;;;9.00;;
40433;SDS011;26146;51.114;5.654;2022-11-20T01:51:48;19.70;;;9.03;;
40433;SDS011;26146;51.114;5.654;2022-11-20T01:55:53;21.27;;;9.40;;
40433;SDS011;26146;51.114;5.654;2022-11-20T01:59:58;21.40;;;9.93;;
40433;SDS011;26146;51.114;5.654;2022-11-20T02:04:04;22.20;;;9.93;;
40433;SDS011;26146;51.114;5.654;2022-11-20T02:08:06;20.57;;;9.47;;
40433;SDS011;26146;51.114;5.654;2022-11-20T02:12:07;23.60;;;9.83;;
40433;SDS011;26146;51.114;5.654;2022-11-20T02:16:33;20.13;;;9.10;;
40433;SDS011;26146;51.114;5.654;2022-11-20T02:20:37;20.27;;;10.13;;
40433;SDS011;26146;51.114;5.654;2022-11-20T02:24:40;20.40;;;9.50;;
40433;SDS011;26146;51.114;5.654;2022-11-20T02:28:44;19.23;;;9.23;;
40433;SDS011;26146;51.114;5.654;2022-11-20T02:32:47;22.47;;;9.80;;
40433;SDS011;26146;51.114;5.654;2022-11-20T02:36:48;22.80;;;9.33;;
40433;SDS011;26146;51.114;5.654;2022-11-20T02:40:51;22.20;;;9.80;;
40433;SDS011;26146;51.114;5.654;2022-11-20T02:44:52;19.10;;;9.27;;
40433;SDS011;26146;51.114;5.654;2022-11-20T02:48:53;19.37;;;9.10;;
40433;SDS011;26146;51.114;5.654;2022-11-20T02:52:54;20.70;;;9.47;;
40433;SDS011;26146;51.114;5.654;2022-11-20T02:56:55;20.40;;;10.03;;
40433;SDS011;26146;51.114;5.654;2022-11-20T03:00:56;22.03;;;9.60;;
40433;SDS011;26146;51.114;5.654;2022-11-20T03:04:56;21.37;;;9.67;;
40433;SDS011;26146;51.114;5.654;2022-11-20T03:08:58;22.57;;;9.90;;
40433;SDS011;26146;51.114;5.654;2022-11-20T03:12:58;21.73;;;9.97;;
40433;SDS011;26146;51.114;5.654;2022-11-20T03:17:02;20.93;;;9.80;;
40433;SDS011;26146;51.114;5.654;2022-11-20T03:21:03;20.77;;;9.83;;
40433;SDS011;26146;51.114;5.654;2022-11-20T03:25:06;20.27;;;9.80;;
40433;SDS011;26146;51.114;5.654;2022-11-20T03:29:07;20.23;;;9.83;;
40433;SDS011;26146;51.114;5.654;2022-11-20T03:33:08;21.50;;;10.03;;
40433;SDS011;26146;51.114;5.654;2022-11-20T03:37:10;21.63;;;9.90;;
40433;SDS011;26146;51.114;5.654;2022-11-20T03:41:14;21.77;;;10.13;;
40433;SDS011;26146;51.114;5.654;2022-11-20T03:45:18;19.90;;;9.53;;
40433;SDS011;26146;51.114;5.654;2022-11-20T03:49:19;21.13;;;10.40;;
40433;SDS011;26146;51.114;5.654;2022-11-20T03:53:20;21.17;;;9.83;;
40433;SDS011;26146;51.114;5.654;2022-11-20T03:57:21;20.97;;;9.90;;
40433;SDS011;26146;51.114;5.654;2022-11-20T04:01:23;20.67;;;10.37;;
40433;SDS011;26146;51.114;5.654;2022-11-20T04:05:26;19.60;;;9.50;;
40433;SDS011;26146;51.114;5.654;2022-11-20T04:09:27;23.63;;;10.00;;
40433;SDS011;26146;51.114;5.654;2022-11-20T04:13:28;18.97;;;9.47;;
40433;SDS011;26146;51.114;5.654;2022-11-20T04:17:29;20.33;;;9.23;;
40433;SDS011;26146;51.114;5.654;2022-11-20T04:21:30;21.27;;;9.80;;
40433;SDS011;26146;51.114;5.654;2022-11-20T04:25:31;21.17;;;9.77;;
40433;SDS011;26146;51.114;5.654;2022-11-20T04:29:32;19.87;;;9.93;;
40433;SDS011;26146;51.114;5.654;2022-11-20T04:33:33;20.73;;;9.87;;
40433;SDS011;26146;51.114;5.654;2022-11-20T04:37:34;21.87;;;10.17;;
40433;SDS011;26146;51.114;5.654;2022-11-20T04:41:35;21.97;;;10.10;;
40433;SDS011;26146;51.114;5.654;2022-11-20T04:45:36;21.30;;;9.97;;
40433;SDS011;26146;51.114;5.654;2022-11-20T04:49:37;21.67;;;9.57;;
40433;SDS011;26146;51.114;5.654;2022-11-20T04:53:38;18.97;;;9.00;;
40433;SDS011;26146;51.114;5.654;2022-11-20T04:57:39;21.00;;;9.70;;
40433;SDS011;26146;51.114;5.654;2022-11-20T05:01:40;19.57;;;9.10;;
40433;SDS011;26146;51.114;5.654;2022-11-20T05:05:41;19.40;;;9.17;;
40433;SDS011;26146;51.114;5.654;2022-11-20T05:09:42;18.23;;;9.40;;
40433;SDS011;26146;51.114;5.654;2022-11-20T05:13:43;20.37;;;9.77;;
40433;SDS011;26146;51.114;5.654;2022-11-20T05:17:48;20.40;;;9.97;;
40433;SDS011;26146;51.114;5.654;2022-11-20T05:21:49;18.15;;;9.25;;
40433;SDS011;26146;51.114;5.654;2022-11-20T05:25:53;20.80;;;10.27;;
40433;SDS011;26146;51.114;5.654;2022-11-20T05:29:55;22.27;;;10.40;;
40433;SDS011;26146;51.114;5.654;2022-11-20T05:33:56;19.87;;;9.90;;
40433;SDS011;26146;51.114;5.654;2022-11-20T05:37:57;19.80;;;9.53;;
40433;SDS011;26146;51.114;5.654;2022-11-20T05:41:58;19.17;;;9.30;;
40433;SDS011;26146;51.114;5.654;2022-11-20T05:46:19;20.10;;;9.73;;
40433;SDS011;26146;51.114;5.654;2022-11-20T05:50:21;20.50;;;10.07;;
40433;SDS011;26146;51.114;5.654;2022-11-20T05:54:22;19.20;;;9.60;;
40433;SDS011;26146;51.114;5.654;2022-11-20T05:58:23;22.77;;;9.43;;
40433;SDS011;26146;51.114;5.654;2022-11-20T06:02:29;21.37;;;9.97;;
40433;SDS011;26146;51.114;5.654;2022-11-20T06:06:30;21.53;;;10.23;;
40433;SDS011;26146;51.114;5.654;2022-11-20T06:10:30;22.90;;;10.30;;
40433;SDS011;26146;51.114;5.654;2022-11-20T06:14:31;22.17;;;10.27;;
40433;SDS011;26146;51.114;5.654;2022-11-20T06:18:32;20.93;;;10.00;;
40433;SDS011;26146;51.114;5.654;2022-11-20T06:22:33;22.00;;;10.37;;
40433;SDS011;26146;51.114;5.654;2022-11-20T06:26:34;25.33;;;10.63;;
40433;SDS011;26146;51.114;5.654;2022-11-20T06:30:58;21.83;;;10.10;;
40433;SDS011;26146;51.114;5.654;2022-11-20T06:34:59;26.20;;;12.07;;
40433;SDS011;26146;51.114;5.654;2022-11-20T06:39:00;30.13;;;13.00;;
40433;SDS011;26146;51.114;5.654;2022-11-20T06:43:01;36.03;;;14.40;;
40433;SDS011;26146;51.114;5.654;2022-11-20T06:47:02;38.13;;;14.73;;
40433;SDS011;26146;51.114;5.654;2022-11-20T06:51:06;42.87;;;14.93;;
40433;SDS011;26146;51.114;5.654;2022-11-20T06:55:07;40.53;;;15.43;;
40433;SDS011;26146;51.114;5.654;2022-11-20T06:59:08;43.90;;;16.00;;
40433;SDS011;26146;51.114;5.654;2022-11-20T07:03:10;37.97;;;15.43;;
40433;SDS011;26146;51.114;5.654;2022-11-20T07:07:12;43.67;;;16.77;;
40433;SDS011;26146;51.114;5.654;2022-11-20T07:11:13;50.13;;;19.03;;
40433;SDS011;26146;51.114;5.654;2022-11-20T07:15:14;55.07;;;20.77;;
40433;SDS011;26146;51.114;5.654;2022-11-20T07:19:15;51.03;;;18.97;;
40433;SDS011;26146;51.114;5.654;2022-11-20T07:23:16;48.60;;;18.87;;
40433;SDS011;26146;51.114;5.654;2022-11-20T07:27:17;48.23;;;18.77;;
40433;SDS011;26146;51.114;5.654;2022-11-20T07:31:18;51.53;;;19.13;;
40433;SDS011;26146;51.114;5.654;2022-11-20T07:35:19;74.40;;;32.47;;
40433;SDS011;26146;51.114;5.654;2022-11-20T07:39:21;56.47;;;23.93;;
40433;SDS011;26146;51.114;5.654;2022-11-20T07:43:21;50.17;;;19.30;;
40433;SDS011;26146;51.114;5.654;2022-11-20T07:47:22;47.80;;;18.57;;
40433;SDS011;26146;51.114;5.654;2022-11-20T07:51:23;44.63;;;18.40;;
40433;SDS011;26146;51.114;5.654;2022-11-20T07:55:26;47.70;;;20.17;;
40433;SDS011;26146;51.114;5.654;2022-11-20T07:59:27;34.67;;;14.60;;
40433;SDS011;26146;51.114;5.654;2022-11-20T08:03:28;43.13;;;20.80;;
40433;SDS011;26146;51.114;5.654;2022-11-20T08:07:28;62.77;;;29.00;;
40433;SDS011;26146;51.114;5.654;2022-11-20T08:11:29;49.03;;;24.37;;
40433;SDS011;26146;51.114;5.654;2022-11-20T08:15:49;40.33;;;17.50;;
40433;SDS011;26146;51.114;5.654;2022-11-20T08:19:53;34.20;;;17.50;;
40433;SDS011;26146;51.114;5.654;2022-11-20T08:23:54;32.87;;;14.70;;
40433;SDS011;26146;51.114;5.654;2022-11-20T08:27:58;33.90;;;14.80;;
40433;SDS011;26146;51.114;5.654;2022-11-20T08:32:00;37.17;;;17.60;;
40433;SDS011;26146;51.114;5.654;2022-11-20T08:36:02;30.67;;;13.33;;
40433;SDS011;26146;51.114;5.654;2022-11-20T08:40:03;36.20;;;18.27;;
40433;SDS011;26146;51.114;5.654;2022-11-20T08:44:06;32.50;;;13.27;;
40433;SDS011;26146;51.114;5.654;2022-11-20T08:48:07;35.17;;;18.40;;
40433;SDS011;26146;51.114;5.654;2022-11-20T08:52:08;29.30;;;11.67;;
40433;SDS011;26146;51.114;5.654;2022-11-20T08:56:09;27.10;;;12.37;;
40433;SDS011;26146;51.114;5.654;2022-11-20T09:00:11;25.93;;;10.47;;
40433;SDS011;26146;51.114;5.654;2022-11-20T09:04:12;26.97;;;11.10;;
40433;SDS011;26146;51.114;5.654;2022-11-20T09:08:14;24.53;;;11.50;;
40433;SDS011;26146;51.114;5.654;2022-11-20T09:12:17;27.37;;;12.10;;
40433;SDS011;26146;51.114;5.654;2022-11-20T09:16:20;28.15;;;11.35;;
40433;SDS011;26146;51.114;5.654;2022-11-20T09:20:21;30.03;;;12.43;;
40433;SDS011;26146;51.114;5.654;2022-11-20T09:24:26;27.40;;;12.47;;
40433;SDS011;26146;51.114;5.654;2022-11-20T09:28:27;28.17;;;13.10;;
40433;SDS011;26146;51.114;5.654;2022-11-20T09:32:28;29.87;;;13.37;;
40433;SDS011;26146;51.114;5.654;2022-11-20T09:36:29;28.57;;;12.63;;
40433;SDS011;26146;51.114;5.654;2022-11-20T09:40:30;29.80;;;13.83;;
40433;SDS011;26146;51.114;5.654;2022-11-20T09:57:18;30.73;;;13.30;;
40433;SDS011;26146;51.114;5.654;2022-11-20T10:01:23;33.03;;;13.45;;
40433;SDS011;26146;51.114;5.654;2022-11-20T10:05:35;32.93;;;13.77;;
40433;SDS011;26146;51.114;5.654;2022-11-20T10:09:47;34.50;;;14.07;;
40433;SDS011;26146;51.114;5.654;2022-11-20T10:31:38;34.22;;;14.60;;
40433;SDS011;26146;51.114;5.654;2022-11-20T10:35:55;33.40;;;14.77;;
40433;SDS011;26146;51.114;5.654;2022-11-20T10:44:32;34.25;;;15.00;;
40433;SDS011;26146;51.114;5.654;2022-11-20T10:48:54;34.07;;;14.87;;
40433;SDS011;26146;51.114;5.654;2022-11-20T10:57:27;35.40;;;15.40;;
40433;SDS011;26146;51.114;5.654;2022-11-20T11:01:41;40.60;;;15.63;;
40433;SDS011;26146;51.114;5.654;2022-11-20T11:06:27;38.67;;;15.70;;
40433;SDS011;26146;51.114;5.654;2022-11-20T11:10:17;40.77;;;15.63;;
40433;SDS011;26146;51.114;5.654;2022-11-20T11:14:21;42.07;;;16.00;;
40433;SDS011;26146;51.114;5.654;2022-11-20T11:18:31;39.60;;;16.20;;
40433;SDS011;26146;51.114;5.654;2022-11-20T11:22:55;42.83;;;16.17;;
40433;SDS011;26146;51.114;5.654;2022-11-20T11:26:58;45.03;;;15.97;;
40433;SDS011;26146;51.114;5.654;2022-11-20T11:30:59;45.00;;;16.13;;
40433;SDS011;26146;51.114;5.654;2022-11-20T11:35:01;40.17;;;15.70;;
40433;SDS011;26146;51.114;5.654;2022-11-20T11:39:05;45.03;;;16.80;;
40433;SDS011;26146;51.114;5.654;2022-11-20T11:43:18;77.13;;;29.57;;
40433;SDS011;26146;51.114;5.654;2022-11-20T11:56:05;44.17;;;17.67;;
40433;SDS011;26146;51.114;5.654;2022-11-20T12:00:11;50.43;;;17.73;;
40433;SDS011;26146;51.114;5.654;2022-11-20T12:04:21;49.97;;;18.67;;
40433;SDS011;26146;51.114;5.654;2022-11-20T12:12:54;43.73;;;17.13;;
40433;SDS011;26146;51.114;5.654;2022-11-20T12:17:01;44.90;;;17.27;;
40433;SDS011;26146;51.114;5.654;2022-11-20T12:25:20;42.97;;;16.73;;
40433;SDS011;26146;51.114;5.654;2022-11-20T12:52:35;46.97;;;17.23;;
40433;SDS011;26146;51.114;5.654;2022-11-20T13:01:24;50.27;;;17.13;;
40433;SDS011;26146;51.114;5.654;2022-11-20T13:10:02;46.73;;;17.87;;
40433;SDS011;26146;51.114;5.654;2022-11-20T13:14:23;53.37;;;19.07;;
40433;SDS011;26146;51.114;5.654;2022-11-20T13:18:38;46.37;;;16.57;;
40433;SDS011;26146;51.114;5.654;2022-11-20T13:22:43;46.60;;;16.60;;
40433;SDS011;26146;51.114;5.654;2022-11-20T13:39:36;46.27;;;18.07;;
40433;SDS011;26146;51.114;5.654;2022-11-20T13:43:40;45.33;;;18.87;;
40433;SDS011;26146;51.114;5.654;2022-11-20T13:47:47;46.33;;;19.10;;
40433;SDS011;26146;51.114;5.654;2022-11-20T13:51:50;39.93;;;16.30;;
40433;SDS011;26146;51.114;5.654;2022-11-20T13:56:04;40.63;;;15.90;;
40433;SDS011;26146;51.114;5.654;2022-11-20T14:00:16;39.37;;;16.20;;
40433;SDS011;26146;51.114;5.654;2022-11-20T14:04:20;34.83;;;14.47;;
40433;SDS011;26146;51.114;5.654;2022-11-20T14:08:35;32.10;;;12.73;;
40433;SDS011;26146;51.114;5.654;2022-11-20T14:12:56;30.30;;;14.10;;
40433;SDS011;26146;51.114;5.654;2022-11-20T14:21:29;17.53;;;8.13;;
40433;SDS011;26146;51.114;5.654;2022-11-20T14:25:30;12.67;;;4.10;;
40433;SDS011;26146;51.114;5.654;2022-11-20T14:29:34;9.27;;;2.83;;
40433;SDS011;26146;51.114;5.654;2022-11-20T14:33:36;10.10;;;3.80;;
40433;SDS011;26146;51.114;5.654;2022-11-20T14:37:38;9.87;;;2.10;;
40433;SDS011;26146;51.114;5.654;2022-11-20T14:41:49;9.03;;;2.77;;
40433;SDS011;26146;51.114;5.654;2022-11-20T14:45:58;10.23;;;3.87;;
40433;SDS011;26146;51.114;5.654;2022-11-20T14:50:00;7.40;;;2.10;;
40433;SDS011;26146;51.114;5.654;2022-11-20T14:54:35;6.63;;;1.97;;
40433;SDS011;26146;51.114;5.654;2022-11-20T14:58:31;8.00;;;2.10;;
40433;SDS011;26146;51.114;5.654;2022-11-20T15:02:42;6.57;;;1.67;;
40433;SDS011;26146;51.114;5.654;2022-11-20T15:06:51;8.10;;;2.67;;
40433;SDS011;26146;51.114;5.654;2022-11-20T15:10:53;9.37;;;2.50;;
40433;SDS011;26146;51.114;5.654;2022-11-20T15:14:55;6.83;;;1.70;;
40433;SDS011;26146;51.114;5.654;2022-11-20T15:18:56;6.37;;;1.60;;
40433;SDS011;26146;51.114;5.654;2022-11-20T15:22:57;8.23;;;2.00;;
40433;SDS011;26146;51.114;5.654;2022-11-20T15:27:00;6.73;;;1.90;;
40433;SDS011;26146;51.114;5.654;2022-11-20T15:31:01;6.20;;;1.60;;
40433;SDS011;26146;51.114;5.654;2022-11-20T15:35:03;6.30;;;1.83;;
40433;SDS011;26146;51.114;5.654;2022-11-20T15:39:04;7.53;;;2.00;;
40433;SDS011;26146;51.114;5.654;2022-11-20T15:43:07;9.07;;;2.20;;
40433;SDS011;26146;51.114;5.654;2022-11-20T15:47:08;6.17;;;2.03;;
40433;SDS011;26146;51.114;5.654;2022-11-20T15:55:11;7.10;;;2.60;;
40433;SDS011;26146;51.114;5.654;2022-11-20T15:59:15;8.37;;;2.70;;
40433;SDS011;26146;51.114;5.654;2022-11-20T16:03:16;8.33;;;3.03;;
40433;SDS011;26146;51.114;5.654;2022-11-20T16:07:18;27.83;;;14.53;;
40433;SDS011;26146;51.114;5.654;2022-11-20T16:11:18;12.40;;;7.10;;
40433;SDS011;26146;51.114;5.654;2022-11-20T16:15:19;9.53;;;3.60;;
40433;SDS011;26146;51.114;5.654;2022-11-20T16:19:39;8.37;;;3.50;;
40433;SDS011;26146;51.114;5.654;2022-11-20T16:23:40;10.60;;;3.00;;
40433;SDS011;26146;51.114;5.654;2022-11-20T16:27:42;7.00;;;2.73;;
40433;SDS011;26146;51.114;5.654;2022-11-20T16:31:43;8.13;;;2.90;;
40433;SDS011;26146;51.114;5.654;2022-11-20T16:35:44;8.67;;;4.10;;
40433;SDS011;26146;51.114;5.654;2022-11-20T16:39:48;8.40;;;2.93;;
40433;SDS011;26146;51.114;5.654;2022-11-20T16:43:52;8.77;;;3.50;;
40433;SDS011;26146;51.114;5.654;2022-11-20T16:47:57;7.50;;;2.73;;
40433;SDS011;26146;51.114;5.654;2022-11-20T16:51:58;8.37;;;2.90;;
40433;SDS011;26146;51.114;5.654;2022-11-20T16:56:12;7.90;;;2.70;;
40433;SDS011;26146;51.114;5.654;2022-11-20T17:00:16;8.17;;;3.20;;
40433;SDS011;26146;51.114;5.654;2022-11-20T17:04:17;8.50;;;3.53;;
40433;SDS011;26146;51.114;5.654;2022-11-20T17:08:20;9.43;;;3.23;;
40433;SDS011;26146;51.114;5.654;2022-11-20T17:12:23;8.00;;;3.23;;
40433;SDS011;26146;51.114;5.654;2022-11-20T17:16:24;9.83;;;3.80;;
40433;SDS011;26146;51.114;5.654;2022-11-20T17:20:28;11.40;;;4.00;;
40433;SDS011;26146;51.114;5.654;2022-11-20T17:24:32;9.60;;;3.90;;
40433;SDS011;26146;51.114;5.654;2022-11-20T17:28:33;28.17;;;11.30;;
40433;SDS011;26146;51.114;5.654;2022-11-20T17:32:37;17.33;;;6.90;;
40433;SDS011;26146;51.114;5.654;2022-11-20T17:36:39;15.63;;;6.77;;
40433;SDS011;26146;51.114;5.654;2022-11-20T17:40:43;14.63;;;6.30;;
40433;SDS011;26146;51.114;5.654;2022-11-20T17:44:45;13.23;;;5.97;;
40433;SDS011;26146;51.114;5.654;2022-11-20T17:48:46;17.70;;;6.17;;
40433;SDS011;26146;51.114;5.654;2022-11-20T17:52:48;16.63;;;3.83;;
40433;SDS011;26146;51.114;5.654;2022-11-20T17:56:49;18.97;;;5.97;;
40433;SDS011;26146;51.114;5.654;2022-11-20T18:01:09;14.07;;;3.93;;
40433;SDS011;26146;51.114;5.654;2022-11-20T18:05:10;26.70;;;9.90;;
40433;SDS011;26146;51.114;5.654;2022-11-20T18:09:11;15.60;;;3.90;;
40433;SDS011;26146;51.114;5.654;2022-11-20T18:13:12;15.70;;;4.10;;
40433;SDS011;26146;51.114;5.654;2022-11-20T18:17:13;23.53;;;7.37;;
40433;SDS011;26146;51.114;5.654;2022-11-20T18:21:14;16.00;;;3.77;;
40433;SDS011;26146;51.114;5.654;2022-11-20T18:25:15;15.67;;;3.60;;
40433;SDS011;26146;51.114;5.654;2022-11-20T18:29:16;17.37;;;4.80;;
40433;SDS011;26146;51.114;5.654;2022-11-20T18:33:17;15.83;;;3.77;;
40433;SDS011;26146;51.114;5.654;2022-11-20T18:37:18;13.70;;;2.90;;
40433;SDS011;26146;51.114;5.654;2022-11-20T18:41:21;15.17;;;3.03;;
40433;SDS011;26146;51.114;5.654;2022-11-20T18:45:44;13.80;;;2.83;;
40433;SDS011;26146;51.114;5.654;2022-11-20T18:49:46;18.90;;;3.80;;
40433;SDS011;26146;51.114;5.654;2022-11-20T18:53:51;12.83;;;3.10;;
40433;SDS011;26146;51.114;5.654;2022-11-20T18:57:52;20.17;;;3.60;;
40433;SDS011;26146;51.114;5.654;2022-11-20T19:01:56;15.13;;;3.23;;
40433;SDS011;26146;51.114;5.654;2022-11-20T19:05:57;13.03;;;3.00;;
40433;SDS011;26146;51.114;5.654;2022-11-20T19:09:58;18.80;;;3.50;;
40433;SDS011;26146;51.114;5.654;2022-11-20T19:13:59;17.70;;;3.30;;
40433;SDS011;26146;51.114;5.654;2022-11-20T19:18:00;12.87;;;2.63;;
40433;SDS011;26146;51.114;5.654;2022-11-20T19:22:01;12.87;;;2.50;;
40433;SDS011;26146;51.114;5.654;2022-11-20T19:26:03;18.10;;;3.40;;
40433;SDS011;26146;51.114;5.654;2022-11-20T19:30:04;12.03;;;2.47;;
40433;SDS011;26146;51.114;5.654;2022-11-20T19:34:06;14.00;;;2.83;;
40433;SDS011;26146;51.114;5.654;2022-11-20T19:38:08;14.40;;;2.90;;
40433;SDS011;26146;51.114;5.654;2022-11-20T19:42:09;12.00;;;2.87;;
40433;SDS011;26146;51.114;5.654;2022-11-20T19:46:10;15.13;;;2.43;;
40433;SDS011;26146;51.114;5.654;2022-11-20T19:50:14;14.00;;;2.80;;
40433;SDS011;26146;51.114;5.654;2022-11-20T19:54:15;14.27;;;2.60;;
40433;SDS011;26146;51.114;5.654;2022-11-20T19:58:16;13.27;;;2.50;;
40433;SDS011;26146;51.114;5.654;2022-11-20T20:02:17;15.43;;;2.70;;
40433;SDS011;26146;51.114;5.654;2022-11-20T20:06:19;17.17;;;2.50;;
40433;SDS011;26146;51.114;5.654;2022-11-20T20:10:22;14.70;;;2.70;;
40433;SDS011;26146;51.114;5.654;2022-11-20T20:14:23;15.00;;;2.60;;
40433;SDS011;26146;51.114;5.654;2022-11-20T20:18:25;15.37;;;2.70;;
40433;SDS011;26146;51.114;5.654;2022-11-20T20:22:26;19.33;;;3.77;;
40433;SDS011;26146;51.114;5.654;2022-11-20T20:26:28;15.70;;;4.00;;
40433;SDS011;26146;51.114;5.654;2022-11-20T20:30:30;15.37;;;3.83;;
40433;SDS011;26146;51.114;5.654;2022-11-20T20:34:31;16.73;;;3.40;;
40433;SDS011;26146;51.114;5.654;2022-11-20T20:38:32;15.53;;;3.47;;
40433;SDS011;26146;51.114;5.654;2022-11-20T20:42:34;16.43;;;3.67;;
40433;SDS011;26146;51.114;5.654;2022-11-20T20:46:35;16.73;;;4.00;;
40433;SDS011;26146;51.114;5.654;2022-11-20T20:50:36;17.37;;;4.20;;
40433;SDS011;26146;51.114;5.654;2022-11-20T20:54:37;19.03;;;3.10;;
40433;SDS011;26146;51.114;5.654;2022-11-20T20:58:41;16.60;;;3.27;;
40433;SDS011;26146;51.114;5.654;2022-11-20T21:02:42;21.23;;;3.30;;
40433;SDS011;26146;51.114;5.654;2022-11-20T21:06:43;14.80;;;3.17;;
40433;SDS011;26146;51.114;5.654;2022-11-20T21:10:44;19.43;;;3.70;;
40433;SDS011;26146;51.114;5.654;2022-11-20T21:14:45;20.53;;;3.70;;
40433;SDS011;26146;51.114;5.654;2022-11-20T21:18:45;14.53;;;3.73;;
40433;SDS011;26146;51.114;5.654;2022-11-20T21:22:46;14.40;;;3.60;;
40433;SDS011;26146;51.114;5.654;2022-11-20T21:26:47;13.13;;;3.40;;
40433;SDS011;26146;51.114;5.654;2022-11-20T21:30:51;18.00;;;3.70;;
40433;SDS011;26146;51.114;5.654;2022-11-20T21:34:52;24.03;;;5.87;;
40433;SDS011;26146;51.114;5.654;2022-11-20T21:38:53;15.13;;;3.40;;
40433;SDS011;26146;51.114;5.654;2022-11-20T21:42:55;18.07;;;3.53;;
40433;SDS011;26146;51.114;5.654;2022-11-20T21:46:56;19.93;;;3.50;;
40433;SDS011;26146;51.114;5.654;2022-11-20T21:51:07;20.17;;;3.33;;
40433;SDS011;26146;51.114;5.654;2022-11-20T21:55:09;17.37;;;3.30;;
40433;SDS011;26146;51.114;5.654;2022-11-20T21:59:11;17.53;;;3.67;;
40433;SDS011;26146;51.114;5.654;2022-11-20T22:03:13;18.97;;;3.50;;
40433;SDS011;26146;51.114;5.654;2022-11-20T22:07:14;18.73;;;3.60;;
40433;SDS011;26146;51.114;5.654;2022-11-20T22:11:16;17.53;;;3.63;;
40433;SDS011;26146;51.114;5.654;2022-11-20T22:15:18;17.53;;;3.90;;
40433;SDS011;26146;51.114;5.654;2022-11-20T22:19:20;18.87;;;3.70;;
40433;SDS011;26146;51.114;5.654;2022-11-20T22:23:22;20.37;;;3.83;;
40433;SDS011;26146;51.114;5.654;2022-11-20T22:27:23;16.07;;;3.73;;
40433;SDS011;26146;51.114;5.654;2022-11-20T22:31:27;19.70;;;3.77;;
40433;SDS011;26146;51.114;5.654;2022-11-20T22:35:29;25.90;;;4.07;;
40433;SDS011;26146;51.114;5.654;2022-11-20T22:39:30;20.47;;;3.87;;
40433;SDS011;26146;51.114;5.654;2022-11-20T22:43:31;17.97;;;3.10;;
40433;SDS011;26146;51.114;5.654;2022-11-20T22:47:32;20.77;;;3.70;;
40433;SDS011;26146;51.114;5.654;2022-11-20T22:51:34;19.07;;;3.60;;
40433;SDS011;26146;51.114;5.654;2022-11-20T22:55:38;16.90;;;3.30;;
40433;SDS011;26146;51.114;5.654;2022-11-20T22:59:38;18.43;;;3.97;;
40433;SDS011;26146;51.114;5.654;2022-11-20T23:03:41;18.57;;;3.43;;
40433;SDS011;26146;51.114;5.654;2022-11-20T23:07:44;21.17;;;3.67;;
40433;SDS011;26146;51.114;5.654;2022-11-20T23:11:45;17.87;;;3.60;;
40433;SDS011;26146;51.114;5.654;2022-11-20T23:15:46;19.23;;;3.77;;
40433;SDS011;26146;51.114;5.654;2022-11-20T23:19:47;16.90;;;3.10;;
40433;SDS011;26146;51.114;5.654;2022-11-20T23:23:49;19.73;;;3.80;;
40433;SDS011;26146;51.114;5.654;2022-11-20T23:27:51;18.63;;;3.13;;
40433;SDS011;26146;51.114;5.654;2022-11-20T23:31:52;20.27;;;3.00;;
40433;SDS011;26146;51.114;5.654;2022-11-20T23:35:53;14.73;;;2.90;;
40433;SDS011;26146;51.114;5.654;2022-11-20T23:39:54;17.97;;;3.10;;
40433;SDS011;26146;51.114;5.654;2022-11-20T23:43:55;18.40;;;2.83;;
40433;SDS011;26146;51.114;5.654;2022-11-20T23:47:56;17.27;;;2.73;;
40433;SDS011;26146;51.114;5.654;2022-11-20T23:51:57;18.57;;;3.23;;
40433;SDS011;26146;51.114;5.654;2022-11-20T23:55:59;20.30;;;3.20;;
